sensor_id;sensor_type;location;lat;lon;timestamp;temperature;humidity
23267;DHT22;11802;53.160;8.214;2023-09-30T00:02:22;11.80;99.90
23267;DHT22;11802;53.160;8.214;2023-09-30T00:04:47;11.70;99.90
23267;DHT22;11802;53.160;8.214;2023-09-30T00:07:13;11.80;99.90
23267;DHT22;11802;53.160;8.214;2023-09-30T00:09:39;11.80;99.90
23267;DHT22;11802;53.160;8.214;2023-09-30T00:12:05;11.70;99.90
23267;DHT22;11802;53.160;8.214;2023-09-30T00:14:30;11.80;99.90
23267;DHT22;11802;53.160;8.214;2023-09-30T00:16:56;11.70;99.90
23267;DHT22;11802;53.160;8.214;2023-09-30T00:19:21;11.70;99.90
23267;DHT22;11802;53.160;8.214;2023-09-30T00:21:50;11.60;99.90
23267;DHT22;11802;53.160;8.214;2023-09-30T00:24:15;11.60;99.90
23267;DHT22;11802;53.160;8.214;2023-09-30T00:26:41;11.60;99.90
23267;DHT22;11802;53.160;8.214;2023-09-30T00:29:07;11.60;99.90
23267;DHT22;11802;53.160;8.214;2023-09-30T00:31:32;11.50;99.90
23267;DHT22;11802;53.160;8.214;2023-09-30T00:33:58;11.50;99.90
23267;DHT22;11802;53.160;8.214;2023-09-30T00:36:23;11.50;99.90
23267;DHT22;11802;53.160;8.214;2023-09-30T00:38:49;11.50;99.90
23267;DHT22;11802;53.160;8.214;2023-09-30T00:41:14;11.50;99.90
23267;DHT22;11802;53.160;8.214;2023-09-30T00:43:40;11.60;99.90
23267;DHT22;11802;53.160;8.214;2023-09-30T00:46:26;11.60;99.90
23267;DHT22;11802;53.160;8.214;2023-09-30T00:48:53;11.60;99.90
23267;DHT22;11802;53.160;8.214;2023-09-30T00:51:20;11.50;99.90
23267;DHT22;11802;53.160;8.214;2023-09-30T00:53:46;11.50;99.90
23267;DHT22;11802;53.160;8.214;2023-09-30T00:56:11;11.50;99.90
23267;DHT22;11802;53.160;8.214;2023-09-30T00:58:38;11.50;99.90
23267;DHT22;11802;53.160;8.214;2023-09-30T01:01:04;11.60;99.90
23267;DHT22;11802;53.160;8.214;2023-09-30T01:03:30;11.60;99.90
23267;DHT22;11802;53.160;8.214;2023-09-30T01:05:56;11.60;99.90
23267;DHT22;11802;53.160;8.214;2023-09-30T01:08:22;11.60;99.90
23267;DHT22;11802;53.160;8.214;2023-09-30T01:10:48;11.60;99.90
23267;DHT22;11802;53.160;8.214;2023-09-30T01:13:13;11.60;99.90
23267;DHT22;11802;53.160;8.214;2023-09-30T01:15:39;11.60;99.90
23267;DHT22;11802;53.160;8.214;2023-09-30T01:18:05;11.60;99.90
23267;DHT22;11802;53.160;8.214;2023-09-30T01:20:30;11.50;99.90
23267;DHT22;11802;53.160;8.214;2023-09-30T01:22:57;11.50;99.90
23267;DHT22;11802;53.160;8.214;2023-09-30T01:25:24;11.50;99.90
23267;DHT22;11802;53.160;8.214;2023-09-30T01:27:49;11.50;99.90
23267;DHT22;11802;53.160;8.214;2023-09-30T01:30:17;11.50;99.90
23267;DHT22;11802;53.160;8.214;2023-09-30T01:32:44;11.50;99.90
23267;DHT22;11802;53.160;8.214;2023-09-30T01:35:09;11.50;99.90
23267;DHT22;11802;53.160;8.214;2023-09-30T01:37:35;11.50;99.90
23267;DHT22;11802;53.160;8.214;2023-09-30T01:40:02;11.50;99.90
23267;DHT22;11802;53.160;8.214;2023-09-30T01:42:29;11.40;99.90
23267;DHT22;11802;53.160;8.214;2023-09-30T01:44:54;11.40;99.90
23267;DHT22;11802;53.160;8.214;2023-09-30T01:47:22;11.40;99.90
23267;DHT22;11802;53.160;8.214;2023-09-30T01:49:47;11.30;99.90
23267;DHT22;11802;53.160;8.214;2023-09-30T01:52:13;11.30;99.90
23267;DHT22;11802;53.160;8.214;2023-09-30T01:54:38;11.40;99.90
23267;DHT22;11802;53.160;8.214;2023-09-30T01:57:04;11.30;99.90
23267;DHT22;11802;53.160;8.214;2023-09-30T01:59:29;11.30;99.90
23267;DHT22;11802;53.160;8.214;2023-09-30T02:01:55;11.30;99.90
23267;DHT22;11802;53.160;8.214;2023-09-30T02:04:21;11.30;99.90
23267;DHT22;11802;53.160;8.214;2023-09-30T02:06:46;11.30;99.90
23267;DHT22;11802;53.160;8.214;2023-09-30T02:09:11;11.30;99.90
23267;DHT22;11802;53.160;8.214;2023-09-30T02:11:38;11.30;99.90
23267;DHT22;11802;53.160;8.214;2023-09-30T02:14:04;11.30;99.90
23267;DHT22;11802;53.160;8.214;2023-09-30T02:16:31;11.20;99.90
23267;DHT22;11802;53.160;8.214;2023-09-30T02:18:57;11.20;99.90
23267;DHT22;11802;53.160;8.214;2023-09-30T02:21:23;11.20;99.90
23267;DHT22;11802;53.160;8.214;2023-09-30T02:23:49;11.30;99.90
23267;DHT22;11802;53.160;8.214;2023-09-30T02:26:15;11.20;99.90
23267;DHT22;11802;53.160;8.214;2023-09-30T02:28:40;11.20;99.90
23267;DHT22;11802;53.160;8.214;2023-09-30T02:31:06;11.20;99.90
23267;DHT22;11802;53.160;8.214;2023-09-30T02:33:33;11.20;99.90
23267;DHT22;11802;53.160;8.214;2023-09-30T02:36:01;11.20;99.90
23267;DHT22;11802;53.160;8.214;2023-09-30T02:38:27;11.30;99.90
23267;DHT22;11802;53.160;8.214;2023-09-30T02:40:54;11.30;99.90
23267;DHT22;11802;53.160;8.214;2023-09-30T02:43:19;11.20;99.90
23267;DHT22;11802;53.160;8.214;2023-09-30T02:45:46;11.20;99.90
23267;DHT22;11802;53.160;8.214;2023-09-30T02:48:11;11.20;99.90
23267;DHT22;11802;53.160;8.214;2023-09-30T02:50:37;11.20;99.90
23267;DHT22;11802;53.160;8.214;2023-09-30T02:53:04;11.20;99.90
23267;DHT22;11802;53.160;8.214;2023-09-30T02:55:30;11.20;99.90
23267;DHT22;11802;53.160;8.214;2023-09-30T02:57:56;11.20;99.90
23267;DHT22;11802;53.160;8.214;2023-09-30T03:00:24;11.20;99.90
23267;DHT22;11802;53.160;8.214;2023-09-30T03:02:51;11.10;99.90
23267;DHT22;11802;53.160;8.214;2023-09-30T03:05:18;11.10;99.90
23267;DHT22;11802;53.160;8.214;2023-09-30T03:07:44;11.10;99.90
23267;DHT22;11802;53.160;8.214;2023-09-30T03:10:09;11.10;99.90
23267;DHT22;11802;53.160;8.214;2023-09-30T03:12:35;11.10;99.90
23267;DHT22;11802;53.160;8.214;2023-09-30T03:15:01;11.10;99.90
23267;DHT22;11802;53.160;8.214;2023-09-30T03:17:29;11.10;99.90
23267;DHT22;11802;53.160;8.214;2023-09-30T03:19:55;11.00;99.90
23267;DHT22;11802;53.160;8.214;2023-09-30T03:22:22;11.00;99.90
23267;DHT22;11802;53.160;8.214;2023-09-30T03:24:48;11.00;99.90
23267;DHT22;11802;53.160;8.214;2023-09-30T03:27:14;11.10;99.90
23267;DHT22;11802;53.160;8.214;2023-09-30T03:29:41;11.00;99.90
23267;DHT22;11802;53.160;8.214;2023-09-30T03:32:06;11.10;99.90
23267;DHT22;11802;53.160;8.214;2023-09-30T03:34:33;11.10;99.90
23267;DHT22;11802;53.160;8.214;2023-09-30T03:37:02;11.10;99.90
23267;DHT22;11802;53.160;8.214;2023-09-30T03:39:27;11.10;99.90
23267;DHT22;11802;53.160;8.214;2023-09-30T03:41:55;11.00;99.90
23267;DHT22;11802;53.160;8.214;2023-09-30T03:44:22;11.00;99.90
23267;DHT22;11802;53.160;8.214;2023-09-30T03:46:50;11.00;99.90
23267;DHT22;11802;53.160;8.214;2023-09-30T03:49:16;11.00;99.90
23267;DHT22;11802;53.160;8.214;2023-09-30T03:51:41;11.00;99.90
23267;DHT22;11802;53.160;8.214;2023-09-30T03:54:07;11.00;99.90
23267;DHT22;11802;53.160;8.214;2023-09-30T03:56:34;11.00;99.90
23267;DHT22;11802;53.160;8.214;2023-09-30T03:58:59;11.10;99.90
23267;DHT22;11802;53.160;8.214;2023-09-30T04:01:25;11.10;99.90
23267;DHT22;11802;53.160;8.214;2023-09-30T04:03:52;11.10;99.90
23267;DHT22;11802;53.160;8.214;2023-09-30T04:06:21;11.00;99.90
23267;DHT22;11802;53.160;8.214;2023-09-30T04:08:47;11.10;99.90
23267;DHT22;11802;53.160;8.214;2023-09-30T04:11:12;11.10;99.90
23267;DHT22;11802;53.160;8.214;2023-09-30T04:13:44;11.10;99.90
23267;DHT22;11802;53.160;8.214;2023-09-30T04:16:10;11.10;99.90
23267;DHT22;11802;53.160;8.214;2023-09-30T04:18:35;11.10;99.90
23267;DHT22;11802;53.160;8.214;2023-09-30T04:21:01;11.20;99.90
23267;DHT22;11802;53.160;8.214;2023-09-30T04:23:29;11.20;99.90
23267;DHT22;11802;53.160;8.214;2023-09-30T04:25:55;11.10;99.90
23267;DHT22;11802;53.160;8.214;2023-09-30T04:28:21;11.10;99.90
23267;DHT22;11802;53.160;8.214;2023-09-30T04:30:47;11.10;99.90
23267;DHT22;11802;53.160;8.214;2023-09-30T04:33:15;11.10;99.90
23267;DHT22;11802;53.160;8.214;2023-09-30T04:35:40;11.10;99.90
23267;DHT22;11802;53.160;8.214;2023-09-30T04:38:06;11.10;99.90
23267;DHT22;11802;53.160;8.214;2023-09-30T04:40:31;11.10;99.90
23267;DHT22;11802;53.160;8.214;2023-09-30T04:42:59;11.10;99.90
23267;DHT22;11802;53.160;8.214;2023-09-30T04:45:25;11.10;99.90
23267;DHT22;11802;53.160;8.214;2023-09-30T04:47:52;11.10;99.90
23267;DHT22;11802;53.160;8.214;2023-09-30T04:50:18;11.20;99.90
23267;DHT22;11802;53.160;8.214;2023-09-30T04:52:47;11.10;99.90
23267;DHT22;11802;53.160;8.214;2023-09-30T04:55:13;11.10;99.90
23267;DHT22;11802;53.160;8.214;2023-09-30T04:57:41;11.20;99.90
23267;DHT22;11802;53.160;8.214;2023-09-30T05:00:11;11.10;99.90
23267;DHT22;11802;53.160;8.214;2023-09-30T05:02:37;11.10;99.90
23267;DHT22;11802;53.160;8.214;2023-09-30T05:05:03;11.10;99.90
23267;DHT22;11802;53.160;8.214;2023-09-30T05:07:31;11.10;99.90
23267;DHT22;11802;53.160;8.214;2023-09-30T05:09:57;11.10;99.90
23267;DHT22;11802;53.160;8.214;2023-09-30T05:12:23;11.10;99.90
23267;DHT22;11802;53.160;8.214;2023-09-30T05:14:48;11.10;99.90
23267;DHT22;11802;53.160;8.214;2023-09-30T05:17:14;11.10;99.90
23267;DHT22;11802;53.160;8.214;2023-09-30T05:19:40;11.10;99.90
23267;DHT22;11802;53.160;8.214;2023-09-30T05:22:05;11.10;99.90
23267;DHT22;11802;53.160;8.214;2023-09-30T05:24:31;11.10;99.90
23267;DHT22;11802;53.160;8.214;2023-09-30T05:26:56;11.10;99.90
23267;DHT22;11802;53.160;8.214;2023-09-30T05:29:22;11.10;99.90
23267;DHT22;11802;53.160;8.214;2023-09-30T05:31:48;11.10;99.90
23267;DHT22;11802;53.160;8.214;2023-09-30T05:34:14;11.10;99.90
23267;DHT22;11802;53.160;8.214;2023-09-30T05:36:39;11.10;99.90
23267;DHT22;11802;53.160;8.214;2023-09-30T05:39:05;11.00;99.90
23267;DHT22;11802;53.160;8.214;2023-09-30T05:41:31;11.10;99.90
23267;DHT22;11802;53.160;8.214;2023-09-30T05:43:57;11.10;99.90
23267;DHT22;11802;53.160;8.214;2023-09-30T05:46:24;11.10;99.90
23267;DHT22;11802;53.160;8.214;2023-09-30T05:48:49;11.10;99.90
23267;DHT22;11802;53.160;8.214;2023-09-30T05:51:15;11.10;99.90
23267;DHT22;11802;53.160;8.214;2023-09-30T05:53:41;11.10;99.90
23267;DHT22;11802;53.160;8.214;2023-09-30T05:56:08;11.10;99.90
23267;DHT22;11802;53.160;8.214;2023-09-30T05:58:36;11.20;99.90
23267;DHT22;11802;53.160;8.214;2023-09-30T06:01:07;11.20;99.90
23267;DHT22;11802;53.160;8.214;2023-09-30T06:03:32;11.20;99.90
23267;DHT22;11802;53.160;8.214;2023-09-30T06:05:59;11.30;99.90
23267;DHT22;11802;53.160;8.214;2023-09-30T06:08:25;11.30;99.90
23267;DHT22;11802;53.160;8.214;2023-09-30T06:10:51;11.40;99.90
23267;DHT22;11802;53.160;8.214;2023-09-30T06:13:16;11.50;99.90
23267;DHT22;11802;53.160;8.214;2023-09-30T06:15:42;11.60;99.90
23267;DHT22;11802;53.160;8.214;2023-09-30T06:18:09;11.70;99.90
23267;DHT22;11802;53.160;8.214;2023-09-30T06:20:38;11.80;99.90
23267;DHT22;11802;53.160;8.214;2023-09-30T06:23:04;12.00;99.90
23267;DHT22;11802;53.160;8.214;2023-09-30T06:25:29;12.00;99.90
23267;DHT22;11802;53.160;8.214;2023-09-30T06:27:56;12.30;99.90
23267;DHT22;11802;53.160;8.214;2023-09-30T06:30:22;12.70;99.90
23267;DHT22;11802;53.160;8.214;2023-09-30T06:32:55;13.30;99.90
23267;DHT22;11802;53.160;8.214;2023-09-30T06:35:20;13.80;99.90
23267;DHT22;11802;53.160;8.214;2023-09-30T06:37:46;14.20;99.90
23267;DHT22;11802;53.160;8.214;2023-09-30T06:40:11;14.60;99.90
23267;DHT22;11802;53.160;8.214;2023-09-30T06:42:38;14.80;99.90
23267;DHT22;11802;53.160;8.214;2023-09-30T06:45:05;15.00;99.90
23267;DHT22;11802;53.160;8.214;2023-09-30T06:47:35;15.20;99.90
23267;DHT22;11802;53.160;8.214;2023-09-30T06:50:08;15.30;99.90
23267;DHT22;11802;53.160;8.214;2023-09-30T06:52:41;15.40;99.90
23267;DHT22;11802;53.160;8.214;2023-09-30T06:55:07;15.20;99.90
23267;DHT22;11802;53.160;8.214;2023-09-30T06:57:37;15.10;99.90
23267;DHT22;11802;53.160;8.214;2023-09-30T07:00:10;15.00;99.90
23267;DHT22;11802;53.160;8.214;2023-09-30T07:02:37;15.10;99.90
23267;DHT22;11802;53.160;8.214;2023-09-30T07:05:10;15.20;99.90
23267;DHT22;11802;53.160;8.214;2023-09-30T07:07:36;15.30;99.90
23267;DHT22;11802;53.160;8.214;2023-09-30T07:10:02;15.70;99.90
23267;DHT22;11802;53.160;8.214;2023-09-30T07:12:29;16.10;99.90
23267;DHT22;11802;53.160;8.214;2023-09-30T07:14:57;16.40;99.90
23267;DHT22;11802;53.160;8.214;2023-09-30T07:17:22;16.70;99.90
23267;DHT22;11802;53.160;8.214;2023-09-30T07:19:48;16.80;99.90
23267;DHT22;11802;53.160;8.214;2023-09-30T07:22:14;17.00;99.90
23267;DHT22;11802;53.160;8.214;2023-09-30T07:24:39;17.20;99.90
23267;DHT22;11802;53.160;8.214;2023-09-30T07:27:05;17.50;99.90
23267;DHT22;11802;53.160;8.214;2023-09-30T07:29:32;17.50;99.90
23267;DHT22;11802;53.160;8.214;2023-09-30T07:31:58;17.70;99.90
23267;DHT22;11802;53.160;8.214;2023-09-30T07:34:24;17.70;79.60
23267;DHT22;11802;53.160;8.214;2023-09-30T07:36:50;17.80;78.80
23267;DHT22;11802;53.160;8.214;2023-09-30T07:39:15;18.00;1.00
23267;DHT22;11802;53.160;8.214;2023-09-30T07:41:42;18.10;99.90
23267;DHT22;11802;53.160;8.214;2023-09-30T07:44:08;17.70;1.00
23267;DHT22;11802;53.160;8.214;2023-09-30T07:46:35;17.80;1.00
23267;DHT22;11802;53.160;8.214;2023-09-30T07:49:01;18.00;1.00
23267;DHT22;11802;53.160;8.214;2023-09-30T07:51:28;18.40;1.00
23267;DHT22;11802;53.160;8.214;2023-09-30T07:53:55;18.60;1.00
23267;DHT22;11802;53.160;8.214;2023-09-30T07:56:20;18.60;90.00
23267;DHT22;11802;53.160;8.214;2023-09-30T07:58:48;18.60;1.00
23267;DHT22;11802;53.160;8.214;2023-09-30T08:01:14;18.90;99.90
23267;DHT22;11802;53.160;8.214;2023-09-30T08:03:40;19.50;1.00
23267;DHT22;11802;53.160;8.214;2023-09-30T08:06:07;19.00;1.00
23267;DHT22;11802;53.160;8.214;2023-09-30T08:08:34;18.80;1.00
23267;DHT22;11802;53.160;8.214;2023-09-30T08:11:00;19.10;1.00
23267;DHT22;11802;53.160;8.214;2023-09-30T08:13:25;19.10;99.90
23267;DHT22;11802;53.160;8.214;2023-09-30T08:15:51;19.40;1.00
23267;DHT22;11802;53.160;8.214;2023-09-30T08:18:18;19.50;99.90
23267;DHT22;11802;53.160;8.214;2023-09-30T08:20:44;19.90;1.00
23267;DHT22;11802;53.160;8.214;2023-09-30T08:23:09;20.20;1.00
23267;DHT22;11802;53.160;8.214;2023-09-30T08:25:37;20.50;99.90
23267;DHT22;11802;53.160;8.214;2023-09-30T08:28:03;20.40;1.00
23267;DHT22;11802;53.160;8.214;2023-09-30T08:30:29;20.50;1.00
23267;DHT22;11802;53.160;8.214;2023-09-30T08:32:54;20.70;1.00
23267;DHT22;11802;53.160;8.214;2023-09-30T08:35:20;21.10;1.00
23267;DHT22;11802;53.160;8.214;2023-09-30T08:37:45;21.50;99.90
23267;DHT22;11802;53.160;8.214;2023-09-30T08:40:11;21.80;1.00
23267;DHT22;11802;53.160;8.214;2023-09-30T08:42:38;21.80;1.00
23267;DHT22;11802;53.160;8.214;2023-09-30T08:45:04;22.50;1.00
23267;DHT22;11802;53.160;8.214;2023-09-30T08:47:33;22.90;1.00
23267;DHT22;11802;53.160;8.214;2023-09-30T08:50:00;23.00;99.90
23267;DHT22;11802;53.160;8.214;2023-09-30T08:52:35;23.10;99.90
23267;DHT22;11802;53.160;8.214;2023-09-30T08:55:01;23.40;1.00
23267;DHT22;11802;53.160;8.214;2023-09-30T08:57:28;23.20;1.00
23267;DHT22;11802;53.160;8.214;2023-09-30T08:59:55;22.90;1.00
23267;DHT22;11802;53.160;8.214;2023-09-30T09:02:20;23.20;1.00
23267;DHT22;11802;53.160;8.214;2023-09-30T09:04:46;22.90;1.00
23267;DHT22;11802;53.160;8.214;2023-09-30T09:07:12;23.60;1.00
23267;DHT22;11802;53.160;8.214;2023-09-30T09:09:38;23.90;99.90
23267;DHT22;11802;53.160;8.214;2023-09-30T09:12:04;24.20;99.90
23267;DHT22;11802;53.160;8.214;2023-09-30T09:14:39;23.70;99.90
23267;DHT22;11802;53.160;8.214;2023-09-30T09:17:06;23.50;1.00
23267;DHT22;11802;53.160;8.214;2023-09-30T09:19:33;24.10;99.90
23267;DHT22;11802;53.160;8.214;2023-09-30T09:22:03;24.40;99.90
23267;DHT22;11802;53.160;8.214;2023-09-30T09:24:33;24.30;46.00
23267;DHT22;11802;53.160;8.214;2023-09-30T09:27:10;24.20;1.00
23267;DHT22;11802;53.160;8.214;2023-09-30T09:29:37;24.50;49.90
23267;DHT22;11802;53.160;8.214;2023-09-30T09:32:16;24.80;1.00
23267;DHT22;11802;53.160;8.214;2023-09-30T09:34:44;25.20;1.00
23267;DHT22;11802;53.160;8.214;2023-09-30T09:37:17;24.70;1.00
23267;DHT22;11802;53.160;8.214;2023-09-30T09:39:53;24.10;1.00
23267;DHT22;11802;53.160;8.214;2023-09-30T09:42:29;24.30;1.00
23267;DHT22;11802;53.160;8.214;2023-09-30T09:45:03;24.80;1.00
23267;DHT22;11802;53.160;8.214;2023-09-30T09:47:32;24.80;1.00
23267;DHT22;11802;53.160;8.214;2023-09-30T09:49:58;24.70;1.00
23267;DHT22;11802;53.160;8.214;2023-09-30T09:52:24;24.80;1.00
23267;DHT22;11802;53.160;8.214;2023-09-30T09:54:50;24.80;1.00
23267;DHT22;11802;53.160;8.214;2023-09-30T09:57:17;24.90;1.00
23267;DHT22;11802;53.160;8.214;2023-09-30T09:59:44;24.10;1.00
23267;DHT22;11802;53.160;8.214;2023-09-30T10:02:14;24.40;1.00
23267;DHT22;11802;53.160;8.214;2023-09-30T10:04:42;24.50;1.00
23267;DHT22;11802;53.160;8.214;2023-09-30T10:09:47;24.00;1.00
23267;DHT22;11802;53.160;8.214;2023-09-30T10:12:15;24.30;1.00
23267;DHT22;11802;53.160;8.214;2023-09-30T10:14:41;24.10;1.00
23267;DHT22;11802;53.160;8.214;2023-09-30T10:17:06;23.90;1.00
23267;DHT22;11802;53.160;8.214;2023-09-30T10:19:32;24.00;1.00
23267;DHT22;11802;53.160;8.214;2023-09-30T10:24:42;24.00;1.00
23267;DHT22;11802;53.160;8.214;2023-09-30T10:35:42;24.20;1.00
23267;DHT22;11802;53.160;8.214;2023-09-30T10:40:50;24.20;1.00
23267;DHT22;11802;53.160;8.214;2023-09-30T10:43:38;24.20;1.00
23267;DHT22;11802;53.160;8.214;2023-09-30T10:48:52;23.70;1.00
23267;DHT22;11802;53.160;8.214;2023-09-30T10:51:19;24.10;1.00
23267;DHT22;11802;53.160;8.214;2023-09-30T10:53:54;23.90;1.00
23267;DHT22;11802;53.160;8.214;2023-09-30T10:56:23;24.10;1.00
23267;DHT22;11802;53.160;8.214;2023-09-30T10:58:51;24.00;1.00
23267;DHT22;11802;53.160;8.214;2023-09-30T11:01:21;23.40;1.00
23267;DHT22;11802;53.160;8.214;2023-09-30T11:03:47;23.60;1.00
23267;DHT22;11802;53.160;8.214;2023-09-30T11:06:17;23.50;1.00
23267;DHT22;11802;53.160;8.214;2023-09-30T11:08:58;23.70;1.00
23267;DHT22;11802;53.160;8.214;2023-09-30T11:11:41;23.60;1.00
23267;DHT22;11802;53.160;8.214;2023-09-30T11:16:42;23.50;1.00
23267;DHT22;11802;53.160;8.214;2023-09-30T11:19:09;23.50;1.00
23267;DHT22;11802;53.160;8.214;2023-09-30T11:21:34;23.30;1.00
23267;DHT22;11802;53.160;8.214;2023-09-30T11:24:01;23.00;1.00
23267;DHT22;11802;53.160;8.214;2023-09-30T11:26:30;22.60;1.00
23267;DHT22;11802;53.160;8.214;2023-09-30T11:29:05;23.10;1.00
23267;DHT22;11802;53.160;8.214;2023-09-30T11:31:31;23.30;1.00
23267;DHT22;11802;53.160;8.214;2023-09-30T11:34:00;23.50;1.00
23267;DHT22;11802;53.160;8.214;2023-09-30T11:36:30;23.50;1.00
23267;DHT22;11802;53.160;8.214;2023-09-30T11:38:57;23.50;1.00
23267;DHT22;11802;53.160;8.214;2023-09-30T11:41:36;23.20;1.00
23267;DHT22;11802;53.160;8.214;2023-09-30T11:44:05;22.30;1.00
23267;DHT22;11802;53.160;8.214;2023-09-30T11:46:33;22.70;1.00
23267;DHT22;11802;53.160;8.214;2023-09-30T11:49:13;22.90;1.00
23267;DHT22;11802;53.160;8.214;2023-09-30T11:51:44;23.20;1.00
23267;DHT22;11802;53.160;8.214;2023-09-30T11:54:14;23.20;1.00
23267;DHT22;11802;53.160;8.214;2023-09-30T11:56:40;23.30;1.00
23267;DHT22;11802;53.160;8.214;2023-09-30T11:59:05;22.80;1.00
23267;DHT22;11802;53.160;8.214;2023-09-30T12:01:31;22.40;1.00
23267;DHT22;11802;53.160;8.214;2023-09-30T12:03:58;22.70;1.00
23267;DHT22;11802;53.160;8.214;2023-09-30T12:06:23;22.90;1.00
23267;DHT22;11802;53.160;8.214;2023-09-30T12:08:49;22.70;1.00
23267;DHT22;11802;53.160;8.214;2023-09-30T12:11:18;22.80;1.00
23267;DHT22;11802;53.160;8.214;2023-09-30T12:13:43;23.20;1.00
23267;DHT22;11802;53.160;8.214;2023-09-30T12:16:10;23.40;1.00
23267;DHT22;11802;53.160;8.214;2023-09-30T12:18:38;23.50;1.00
23267;DHT22;11802;53.160;8.214;2023-09-30T12:21:04;23.40;1.00
23267;DHT22;11802;53.160;8.214;2023-09-30T12:23:31;23.40;1.00
23267;DHT22;11802;53.160;8.214;2023-09-30T12:25:57;23.50;1.00
23267;DHT22;11802;53.160;8.214;2023-09-30T12:28:22;23.50;1.00
23267;DHT22;11802;53.160;8.214;2023-09-30T12:30:48;23.80;1.00
23267;DHT22;11802;53.160;8.214;2023-09-30T12:33:13;23.70;1.00
23267;DHT22;11802;53.160;8.214;2023-09-30T12:35:39;23.40;1.00
23267;DHT22;11802;53.160;8.214;2023-09-30T12:38:04;22.50;1.00
23267;DHT22;11802;53.160;8.214;2023-09-30T12:40:31;22.40;1.00
23267;DHT22;11802;53.160;8.214;2023-09-30T12:42:58;22.60;1.00
23267;DHT22;11802;53.160;8.214;2023-09-30T12:45:23;23.00;1.00
23267;DHT22;11802;53.160;8.214;2023-09-30T12:47:49;23.10;1.00
23267;DHT22;11802;53.160;8.214;2023-09-30T12:50:17;23.10;1.00
23267;DHT22;11802;53.160;8.214;2023-09-30T12:52:43;23.60;1.00
23267;DHT22;11802;53.160;8.214;2023-09-30T12:55:10;23.90;1.00
23267;DHT22;11802;53.160;8.214;2023-09-30T12:57:36;23.40;1.00
23267;DHT22;11802;53.160;8.214;2023-09-30T13:00:02;23.20;1.00
23267;DHT22;11802;53.160;8.214;2023-09-30T13:02:28;23.30;1.00
23267;DHT22;11802;53.160;8.214;2023-09-30T13:04:53;23.00;1.00
23267;DHT22;11802;53.160;8.214;2023-09-30T13:07:19;22.80;1.00
23267;DHT22;11802;53.160;8.214;2023-09-30T13:09:45;22.60;1.00
23267;DHT22;11802;53.160;8.214;2023-09-30T13:12:11;22.50;1.00
23267;DHT22;11802;53.160;8.214;2023-09-30T13:14:37;22.40;1.00
23267;DHT22;11802;53.160;8.214;2023-09-30T13:17:04;22.20;1.00
23267;DHT22;11802;53.160;8.214;2023-09-30T13:19:29;22.00;1.00
23267;DHT22;11802;53.160;8.214;2023-09-30T13:21:55;22.10;1.00
23267;DHT22;11802;53.160;8.214;2023-09-30T13:24:21;22.00;1.00
23267;DHT22;11802;53.160;8.214;2023-09-30T13:26:47;22.00;1.00
23267;DHT22;11802;53.160;8.214;2023-09-30T13:29:15;21.90;1.00
23267;DHT22;11802;53.160;8.214;2023-09-30T13:31:42;21.70;1.00
23267;DHT22;11802;53.160;8.214;2023-09-30T13:34:08;21.60;79.20
23267;DHT22;11802;53.160;8.214;2023-09-30T13:36:34;21.40;99.90
23267;DHT22;11802;53.160;8.214;2023-09-30T13:38:59;21.40;99.90
23267;DHT22;11802;53.160;8.214;2023-09-30T13:41:26;21.20;99.90
23267;DHT22;11802;53.160;8.214;2023-09-30T13:43:51;21.10;99.90
23267;DHT22;11802;53.160;8.214;2023-09-30T13:46:17;20.90;1.00
23267;DHT22;11802;53.160;8.214;2023-09-30T13:48:43;20.90;1.00
23267;DHT22;11802;53.160;8.214;2023-09-30T13:51:10;20.90;1.00
23267;DHT22;11802;53.160;8.214;2023-09-30T13:53:36;20.80;99.90
23267;DHT22;11802;53.160;8.214;2023-09-30T13:56:02;20.90;99.90
23267;DHT22;11802;53.160;8.214;2023-09-30T13:58:29;20.90;99.90
23267;DHT22;11802;53.160;8.214;2023-09-30T14:00:54;21.00;99.90
23267;DHT22;11802;53.160;8.214;2023-09-30T14:03:22;20.90;99.90
23267;DHT22;11802;53.160;8.214;2023-09-30T14:05:50;20.80;99.90
23267;DHT22;11802;53.160;8.214;2023-09-30T14:08:15;20.80;99.90
23267;DHT22;11802;53.160;8.214;2023-09-30T14:10:41;20.80;99.90
23267;DHT22;11802;53.160;8.214;2023-09-30T14:13:07;20.80;99.90
23267;DHT22;11802;53.160;8.214;2023-09-30T14:15:32;20.80;99.90
23267;DHT22;11802;53.160;8.214;2023-09-30T14:17:58;20.80;99.90
23267;DHT22;11802;53.160;8.214;2023-09-30T14:20:24;20.80;99.90
23267;DHT22;11802;53.160;8.214;2023-09-30T14:22:50;20.90;99.90
23267;DHT22;11802;53.160;8.214;2023-09-30T14:25:17;21.10;99.90
23267;DHT22;11802;53.160;8.214;2023-09-30T14:27:43;21.30;99.90
23267;DHT22;11802;53.160;8.214;2023-09-30T14:30:09;21.40;56.50
23267;DHT22;11802;53.160;8.214;2023-09-30T14:32:35;21.30;99.90
23267;DHT22;11802;53.160;8.214;2023-09-30T14:35:00;21.20;99.90
23267;DHT22;11802;53.160;8.214;2023-09-30T14:37:26;21.20;99.90
23267;DHT22;11802;53.160;8.214;2023-09-30T14:39:52;21.20;99.90
23267;DHT22;11802;53.160;8.214;2023-09-30T14:42:17;21.20;1.00
23267;DHT22;11802;53.160;8.214;2023-09-30T14:44:43;21.30;1.00
23267;DHT22;11802;53.160;8.214;2023-09-30T14:47:08;21.30;99.90
23267;DHT22;11802;53.160;8.214;2023-09-30T14:49:34;21.30;99.90
23267;DHT22;11802;53.160;8.214;2023-09-30T14:52:00;21.10;1.00
23267;DHT22;11802;53.160;8.214;2023-09-30T14:54:26;21.20;1.00
23267;DHT22;11802;53.160;8.214;2023-09-30T14:56:52;21.30;1.00
23267;DHT22;11802;53.160;8.214;2023-09-30T14:59:17;21.40;1.00
23267;DHT22;11802;53.160;8.214;2023-09-30T15:01:43;21.30;1.00
23267;DHT22;11802;53.160;8.214;2023-09-30T15:04:09;21.20;1.00
23267;DHT22;11802;53.160;8.214;2023-09-30T15:06:34;21.10;1.00
23267;DHT22;11802;53.160;8.214;2023-09-30T15:09:00;20.90;1.00
23267;DHT22;11802;53.160;8.214;2023-09-30T15:11:27;20.90;1.00
23267;DHT22;11802;53.160;8.214;2023-09-30T15:13:53;20.90;1.00
23267;DHT22;11802;53.160;8.214;2023-09-30T15:16:20;20.70;78.70
23267;DHT22;11802;53.160;8.214;2023-09-30T15:18:46;20.70;99.90
23267;DHT22;11802;53.160;8.214;2023-09-30T15:21:13;20.50;99.90
23267;DHT22;11802;53.160;8.214;2023-09-30T15:23:40;20.40;99.90
23267;DHT22;11802;53.160;8.214;2023-09-30T15:26:05;20.30;1.00
23267;DHT22;11802;53.160;8.214;2023-09-30T15:28:31;20.10;1.00
23267;DHT22;11802;53.160;8.214;2023-09-30T15:30:58;20.00;99.90
23267;DHT22;11802;53.160;8.214;2023-09-30T15:33:24;19.90;99.90
23267;DHT22;11802;53.160;8.214;2023-09-30T15:35:50;19.80;1.00
23267;DHT22;11802;53.160;8.214;2023-09-30T15:38:16;19.70;99.90
23267;DHT22;11802;53.160;8.214;2023-09-30T15:40:55;19.60;95.60
23267;DHT22;11802;53.160;8.214;2023-09-30T15:43:23;19.60;99.90
23267;DHT22;11802;53.160;8.214;2023-09-30T15:45:49;19.60;1.00
23267;DHT22;11802;53.160;8.214;2023-09-30T15:48:15;19.60;1.00
23267;DHT22;11802;53.160;8.214;2023-09-30T15:50:42;19.50;1.00
23267;DHT22;11802;53.160;8.214;2023-09-30T15:53:07;19.50;1.00
23267;DHT22;11802;53.160;8.214;2023-09-30T15:55:33;19.50;1.00
23267;DHT22;11802;53.160;8.214;2023-09-30T15:57:58;19.50;1.00